createdAt,value
2017-12-21T00:00:26.126Z,-4.94
2017-12-21T00:01:35.841Z,-4.84
2017-12-21T00:02:45.818Z,-4.95
2017-12-21T00:03:55.531Z,-4.92
2017-12-21T00:05:05.240Z,-4.81
2017-12-21T00:06:15.223Z,-4.95
2017-12-21T00:07:25.203Z,-5.06
2017-12-21T00:08:35.176Z,-5.09
2017-12-21T00:09:44.916Z,-5.09
2017-12-21T00:10:54.632Z,-5.12
2017-12-21T00:12:04.607Z,-5.13
2017-12-21T00:13:14.638Z,-5.17
2017-12-21T00:14:24.349Z,-5.21
2017-12-21T00:15:34.367Z,-5.28
2017-12-21T00:16:44.347Z,-5.25
2017-12-21T00:17:54.319Z,-5.28
2017-12-21T00:19:04.294Z,-5.32
2017-12-21T00:20:14.008Z,-5.21
2017-12-21T00:21:24.000Z,-5.43
2017-12-21T00:22:33.975Z,-5.38
2017-12-21T00:23:43.952Z,-5.45
2017-12-21T00:24:53.929Z,-5.53
2017-12-21T00:26:03.904Z,-5.53
2017-12-21T00:27:13.620Z,-5.53
2017-12-21T00:28:23.603Z,-5.41
2017-12-21T00:29:33.580Z,-5.39
2017-12-21T00:30:43.558Z,-5.28
2017-12-21T00:31:53.527Z,-5.39
2017-12-21T00:33:03.240Z,-5.27
2017-12-21T00:34:13.214Z,-5.28
2017-12-21T00:35:22.931Z,-5.23
2017-12-21T00:36:32.912Z,-5.3
2017-12-21T00:37:42.890Z,-5.27
2017-12-21T00:38:52.873Z,-5.21
2017-12-21T00:40:02.852Z,-5.28
2017-12-21T00:41:12.569Z,-5.27
2017-12-21T00:42:22.296Z,-5.28
2017-12-21T00:43:32.281Z,-5.23
2017-12-21T00:44:42.260Z,-5.23
2017-12-21T00:45:51.977Z,-5.2
2017-12-21T00:47:01.695Z,-5.13
2017-12-21T00:48:11.671Z,-5.12
2017-12-21T00:49:21.386Z,-5.09
2017-12-21T00:50:31.365Z,-5.09
2017-12-21T00:51:41.346Z,-5.08
2017-12-21T00:52:51.338Z,-5.12
2017-12-21T00:54:01.314Z,-5.08
2017-12-21T00:55:11.307Z,-5.02
2017-12-21T00:56:21.289Z,-5.16
2017-12-21T00:57:31.265Z,-5.09
2017-12-21T00:58:41.240Z,-5.16
2017-12-21T00:59:51.216Z,-5.13
2017-12-21T01:01:01.195Z,-5.12
2017-12-21T01:02:10.903Z,-5.02
2017-12-21T01:03:20.621Z,-5
2017-12-21T01:04:30.599Z,-4.97
2017-12-21T01:05:40.575Z,-4.88
2017-12-21T01:06:50.285Z,-4.95
2017-12-21T01:08:00.262Z,-4.91
2017-12-21T01:09:09.983Z,-4.84
2017-12-21T01:10:19.959Z,-4.94
2017-12-21T01:11:29.938Z,-4.92
2017-12-21T01:12:39.913Z,-4.94
2017-12-21T01:13:49.910Z,-4.81
2017-12-21T01:14:59.619Z,-4.87
2017-12-21T01:16:09.327Z,-4.84
2017-12-21T01:17:19.313Z,-4.84
2017-12-21T01:18:29.298Z,-4.76
2017-12-21T01:19:39.275Z,-4.77
2017-12-21T01:20:49.252Z,-4.67
2017-12-21T01:21:58.699Z,-4.65
2017-12-21T01:23:08.415Z,-4.69
2017-12-21T01:24:18.125Z,-4.65
2017-12-21T01:25:28.110Z,-4.53
2017-12-21T01:26:38.087Z,-4.56
2017-12-21T01:27:47.532Z,-4.52
2017-12-21T01:28:57.513Z,-4.55
2017-12-21T01:30:07.231Z,-4.45
2017-12-21T01:31:16.677Z,-4.41
2017-12-21T01:32:26.656Z,-4.44
2017-12-21T01:33:36.374Z,-4.49
2017-12-21T01:34:46.353Z,-4.35
2017-12-21T01:35:56.336Z,-4.26
2017-12-21T01:37:06.051Z,-4.35
2017-12-21T01:38:15.764Z,-4.24
2017-12-21T01:39:25.743Z,-4.16
2017-12-21T01:40:35.722Z,-4.17
2017-12-21T01:41:45.699Z,-4.04
2017-12-21T01:42:55.677Z,-4.02
2017-12-21T01:44:05.388Z,-3.9
2017-12-21T01:45:15.157Z,-3.98
2017-12-21T01:46:25.133Z,-3.94
2017-12-21T01:47:35.107Z,-3.99
2017-12-21T01:48:45.093Z,-3.99
2017-12-21T01:49:55.082Z,-3.98
2017-12-21T01:51:05.063Z,-3.99
2017-12-21T01:52:15.041Z,-4.05
2017-12-21T01:53:25.020Z,-4.13
2017-12-21T01:54:35.002Z,-4.23
2017-12-21T01:55:44.987Z,-4.47
2017-12-21T01:56:54.972Z,-4.58
2017-12-21T01:58:04.945Z,-4.77
2017-12-21T01:59:14.934Z,-4.84
2017-12-21T02:00:24.908Z,-4.83
2017-12-21T02:01:34.890Z,-4.92
2017-12-21T02:02:44.863Z,-4.87
2017-12-21T02:03:54.849Z,-4.91
2017-12-21T02:05:04.825Z,-4.92
2017-12-21T02:06:14.859Z,-4.92
2017-12-21T02:07:24.835Z,-4.98
2017-12-21T02:08:34.820Z,-5.1
2017-12-21T02:09:44.269Z,-4.98
2017-12-21T02:10:53.982Z,-5.05
2017-12-21T02:12:03.958Z,-5.09
2017-12-21T02:13:13.936Z,-5.2
2017-12-21T02:14:23.910Z,-5.2
2017-12-21T02:15:33.883Z,-5.25
2017-12-21T02:16:43.857Z,-5.41
2017-12-21T02:17:54.085Z,-5.45
2017-12-21T02:19:04.082Z,-5.45
2017-12-21T02:20:14.060Z,-5.67
2017-12-21T02:21:24.039Z,-5.7
2017-12-21T02:22:34.065Z,-5.94
2017-12-21T02:23:44.037Z,-5.94
2017-12-21T02:24:53.749Z,-6.06
2017-12-21T02:26:03.471Z,-6.24
2017-12-21T02:27:13.445Z,-6.28
2017-12-21T02:28:23.424Z,-6.39
2017-12-21T02:29:33.135Z,-6.58
2017-12-21T02:30:43.116Z,-6.61
2017-12-21T02:31:53.097Z,-6.71
2017-12-21T02:33:02.809Z,-6.76
2017-12-21T02:34:12.789Z,-6.64
2017-12-21T02:35:22.770Z,-6.49
2017-12-21T02:36:32.753Z,-6.31
2017-12-21T02:37:42.463Z,-6.26
2017-12-21T02:38:52.440Z,-6.03
2017-12-21T02:40:02.430Z,-5.97
2017-12-21T02:41:12.143Z,-5.89
2017-12-21T02:42:22.129Z,-5.74
2017-12-21T02:43:32.110Z,-5.77
2017-12-21T02:44:42.088Z,-5.67
2017-12-21T02:45:51.808Z,-5.71
2017-12-21T02:47:01.784Z,-5.74
2017-12-21T02:48:11.230Z,-5.82
2017-12-21T02:49:21.223Z,-5.85
2017-12-21T02:50:31.205Z,-5.92
2017-12-21T02:51:41.192Z,-6
2017-12-21T02:52:50.903Z,-5.97
2017-12-21T02:54:00.887Z,-5.91
2017-12-21T02:55:10.870Z,-6.05
2017-12-21T02:56:20.578Z,-5.94
2017-12-21T02:57:30.574Z,-5.97
2017-12-21T02:58:40.547Z,-5.97
2017-12-21T02:59:50.531Z,-5.91
2017-12-21T03:01:00.501Z,-5.95
2017-12-21T03:02:10.533Z,-6.03
2017-12-21T03:03:20.256Z,-6.03
2017-12-21T03:04:30.231Z,-6.05
2017-12-21T03:05:39.943Z,-5.99
2017-12-21T03:06:49.652Z,-5.89
2017-12-21T03:07:59.626Z,-5.91
2017-12-21T03:09:09.602Z,-5.78
2017-12-21T03:10:19.313Z,-5.68
2017-12-21T03:11:28.756Z,-5.64
2017-12-21T03:12:38.732Z,-5.59
2017-12-21T03:13:48.440Z,-5.56
2017-12-21T03:14:58.147Z,-5.48
2017-12-21T03:16:09.911Z,-5.58
2017-12-21T03:17:19.894Z,-5.49
2017-12-21T03:18:29.869Z,-5.45
2017-12-21T03:19:39.843Z,-5.28
2017-12-21T03:20:49.829Z,-5.27
2017-12-21T03:21:59.808Z,-5.13
2017-12-21T03:23:09.790Z,-5.05
2017-12-21T03:24:19.767Z,-5.12
2017-12-21T03:25:29.742Z,-5.13
2017-12-21T03:26:39.716Z,-5.16
2017-12-21T03:27:49.689Z,-5
2017-12-21T03:28:59.663Z,-5.02
2017-12-21T03:30:09.648Z,-5.05
2017-12-21T03:31:19.651Z,-5
2017-12-21T03:32:29.646Z,-5.02
2017-12-21T03:33:39.635Z,-4.92
2017-12-21T03:34:49.608Z,-4.94
2017-12-21T03:35:59.583Z,-4.8
2017-12-21T03:37:09.031Z,-4.8
2017-12-21T03:38:18.742Z,-4.87
2017-12-21T03:39:28.721Z,-4.84
2017-12-21T03:40:38.701Z,-4.83
2017-12-21T03:41:48.411Z,-4.88
2017-12-21T03:42:58.405Z,-4.7
2017-12-21T03:44:08.119Z,-4.76
2017-12-21T03:45:18.100Z,-4.63
2017-12-21T03:46:27.817Z,-4.56
2017-12-21T03:47:37.530Z,-4.61
2017-12-21T03:48:47.511Z,-4.55
2017-12-21T03:49:57.495Z,-4.51
2017-12-21T03:51:07.822Z,-4.47
2017-12-21T03:52:17.805Z,-4.47
2017-12-21T03:53:27.782Z,-4.49
2017-12-21T03:54:37.491Z,-4.44
2017-12-21T03:55:47.472Z,-4.4
2017-12-21T03:56:57.189Z,-4.38
2017-12-21T03:58:07.171Z,-4.4
2017-12-21T03:59:17.161Z,-4.4
2017-12-21T04:03:24.910Z,-4.45
2017-12-21T04:04:34.902Z,-4.37
2017-12-21T04:05:44.881Z,-4.35
2017-12-21T04:06:54.593Z,-4.24
2017-12-21T04:08:04.577Z,-4.24
2017-12-21T04:09:14.295Z,-4.27
2017-12-21T04:10:24.006Z,-4.31
2017-12-21T04:11:33.985Z,-4.27
2017-12-21T04:12:43.962Z,-4.3
2017-12-21T04:13:53.686Z,-4.33
2017-12-21T04:15:03.661Z,-4.31
2017-12-21T04:16:13.108Z,-4.27
2017-12-21T04:17:23.084Z,-4.3
2017-12-21T04:18:33.116Z,-4.31
2017-12-21T04:19:42.833Z,-4.35
2017-12-21T04:20:52.550Z,-4.33
2017-12-21T04:22:02.537Z,-4.33
2017-12-21T04:23:12.512Z,-4.27
2017-12-21T04:24:22.491Z,-4.3
2017-12-21T04:25:32.473Z,-4.33
2017-12-21T04:26:42.455Z,-4.42
2017-12-21T04:27:52.434Z,-4.47
2017-12-21T04:29:02.415Z,-4.38
2017-12-21T04:30:12.390Z,-4.49
2017-12-21T04:31:22.107Z,-4.47
2017-12-21T04:32:32.082Z,-4.61
2017-12-21T04:33:42.058Z,-4.52
2017-12-21T04:34:52.049Z,-4.59
2017-12-21T04:36:01.760Z,-4.59
2017-12-21T04:37:11.482Z,-4.59
2017-12-21T04:38:21.457Z,-4.55
2017-12-21T04:39:31.439Z,-4.73
2017-12-21T04:40:41.418Z,-4.58
2017-12-21T04:41:51.396Z,-4.56
2017-12-21T04:43:01.107Z,-4.55
2017-12-21T04:44:10.821Z,-4.55
2017-12-21T04:45:20.804Z,-4.45
2017-12-21T04:46:30.785Z,-4.51
2017-12-21T04:47:40.760Z,-4.61
2017-12-21T04:48:50.742Z,-4.67
2017-12-21T04:50:00.719Z,-4.74
2017-12-21T04:51:10.174Z,-4.83
2017-12-21T04:52:20.162Z,-4.97
2017-12-21T04:53:30.146Z,-5.13
2017-12-21T04:54:40.124Z,-5.27
2017-12-21T04:55:50.131Z,-5.27
2017-12-21T04:57:00.108Z,-5.43
2017-12-21T04:58:09.822Z,-5.48
2017-12-21T04:59:19.533Z,-5.6
2017-12-21T05:00:29.508Z,-5.7
2017-12-21T05:01:39.480Z,-5.73
2017-12-21T05:02:49.455Z,-5.81
2017-12-21T05:03:59.436Z,-5.84
2017-12-21T05:05:09.412Z,-5.85
2017-12-21T05:06:19.390Z,-5.94
2017-12-21T05:07:28.567Z,-5.94
2017-12-21T05:08:38.543Z,-6.03
2017-12-21T05:09:48.519Z,-6.07
2017-12-21T05:10:58.498Z,-6.31
2017-12-21T05:12:08.473Z,-6.58
2017-12-21T05:13:18.189Z,-6.81
2017-12-21T05:14:28.166Z,-6.84
2017-12-21T05:15:38.210Z,-6.76
2017-12-21T05:16:47.919Z,-6.76
2017-12-21T05:17:57.633Z,-6.75
2017-12-21T05:19:07.615Z,-6.81
2017-12-21T05:20:17.588Z,-6.78
2017-12-21T05:21:27.570Z,-6.78
2017-12-21T05:22:37.541Z,-6.75
2017-12-21T05:23:47.515Z,-6.82
2017-12-21T05:24:57.493Z,-6.86
2017-12-21T05:26:07.201Z,-6.76
2017-12-21T05:27:16.910Z,-6.61
2017-12-21T05:28:26.883Z,-6.58
2017-12-21T05:29:36.861Z,-6.45
2017-12-21T05:30:46.844Z,-6.49
2017-12-21T05:31:56.551Z,-6.45
2017-12-21T05:33:06.526Z,-6.51
2017-12-21T05:34:16.505Z,-6.51
2017-12-21T05:35:26.480Z,-6.54
2017-12-21T05:36:36.456Z,-6.7
2017-12-21T05:37:46.439Z,-6.63
2017-12-21T05:38:56.412Z,-6.75
2017-12-21T05:40:06.125Z,-6.78
2017-12-21T05:41:16.098Z,-6.78
2017-12-21T05:42:26.082Z,-6.82
2017-12-21T05:43:36.058Z,-6.7
2017-12-21T05:44:46.041Z,-6.75
2017-12-21T05:45:56.014Z,-6.76
2017-12-21T05:47:05.993Z,-6.67
2017-12-21T05:48:15.702Z,-6.66
2017-12-21T05:49:25.681Z,-6.71
2017-12-21T05:50:35.660Z,-6.6
2017-12-21T05:51:45.637Z,-6.64
2017-12-21T05:52:55.676Z,-6.54
2017-12-21T05:54:05.674Z,-6.48
2017-12-21T05:55:15.388Z,-6.48
2017-12-21T05:56:25.368Z,-6.39
2017-12-21T05:57:35.348Z,-6.31
2017-12-21T05:58:45.324Z,-6.15
2017-12-21T05:59:55.303Z,-5.94
2017-12-21T06:01:05.286Z,-5.78
2017-12-21T06:02:15.261Z,-5.64
2017-12-21T06:03:25.241Z,-5.6
2017-12-21T06:04:35.280Z,-5.59
2017-12-21T06:05:45.255Z,-5.5
2017-12-21T06:06:55.227Z,-5.39
2017-12-21T06:08:05.205Z,-5.35
2017-12-21T06:09:14.914Z,-5.27
2017-12-21T06:10:24.886Z,-5.2
2017-12-21T06:11:34.886Z,-5.12
2017-12-21T06:12:44.861Z,-5.02
2017-12-21T06:13:54.573Z,-4.88
2017-12-21T06:15:04.555Z,-4.8
2017-12-21T06:16:14.528Z,-4.87
2017-12-21T06:17:24.504Z,-4.79
2017-12-21T06:18:34.477Z,-4.71
2017-12-21T06:19:44.461Z,-4.67
2017-12-21T06:20:54.445Z,-4.55
2017-12-21T06:22:04.416Z,-4.59
2017-12-21T06:23:14.391Z,-4.55
2017-12-21T06:24:24.371Z,-4.55
2017-12-21T06:25:34.342Z,-4.51
2017-12-21T06:26:44.371Z,-4.51
2017-12-21T06:27:54.345Z,-4.55
2017-12-21T06:29:04.329Z,-4.53
2017-12-21T06:30:14.303Z,-4.59
2017-12-21T06:31:24.291Z,-4.58
2017-12-21T06:32:34.268Z,-4.67
2017-12-21T06:33:44.241Z,-4.7
2017-12-21T06:34:56.220Z,-4.71
2017-12-21T06:36:06.199Z,-4.83
2017-12-21T06:37:16.174Z,-4.81
2017-12-21T06:38:25.885Z,-4.83
2017-12-21T06:39:35.861Z,-4.91
2017-12-21T06:40:45.840Z,-5.05
2017-12-21T06:41:55.821Z,-5
2017-12-21T06:43:05.800Z,-5.02
2017-12-21T06:44:15.776Z,-4.97
2017-12-21T06:45:25.488Z,-5
2017-12-21T06:46:35.742Z,-5.02
2017-12-21T06:47:45.734Z,-5.01
2017-12-21T06:48:55.719Z,-4.94
2017-12-21T06:50:05.695Z,-4.51
2017-12-21T06:51:15.671Z,-4.09
2017-12-21T06:52:25.645Z,-3.59
2017-12-21T06:53:35.694Z,-3.2
2017-12-21T06:54:45.437Z,-2.89
2017-12-21T06:55:55.413Z,-2.42
2017-12-21T06:57:05.392Z,-2.29
2017-12-21T06:58:15.374Z,-2.05
2017-12-21T06:59:25.366Z,-1.71
2017-12-21T07:00:35.073Z,-1.56
2017-12-21T07:01:45.049Z,-1.19
2017-12-21T07:02:55.036Z,-1.06
2017-12-21T07:04:05.072Z,-0.84
2017-12-21T07:05:14.525Z,-0.78
2017-12-21T07:06:24.247Z,-0.8
2017-12-21T07:07:33.961Z,-0.78
2017-12-21T07:08:43.678Z,-0.54
2017-12-21T07:09:53.665Z,-0.63
2017-12-21T07:11:03.643Z,-0.67
2017-12-21T07:12:13.625Z,-0.74
2017-12-21T07:13:23.603Z,-0.74
2017-12-21T07:14:33.585Z,-0.7
2017-12-21T07:15:43.566Z,-0.63
2017-12-21T07:16:53.548Z,-0.6
2017-12-21T07:18:03.558Z,-1.07
2017-12-21T07:19:13.273Z,-1.93
2017-12-21T07:20:23.257Z,-2.36
2017-12-21T07:21:33.236Z,-2.65
2017-12-21T07:22:42.949Z,-3.04
2017-12-21T07:23:52.934Z,-3.4
2017-12-21T07:25:02.646Z,-3.37
2017-12-21T07:26:12.397Z,-3.37
2017-12-21T07:27:22.386Z,-3.37
2017-12-21T07:28:32.102Z,-3.32
2017-12-21T07:29:41.818Z,-3.44
2017-12-21T07:30:51.535Z,-3.74
2017-12-21T07:32:01.511Z,-3.68
2017-12-21T07:33:11.494Z,-3.62
2017-12-21T07:34:21.490Z,-3.59
2017-12-21T07:35:31.476Z,-3.65
2017-12-21T07:36:41.197Z,-3.84
2017-12-21T07:37:50.911Z,-3.83
2017-12-21T07:39:00.908Z,-3.99
2017-12-21T07:40:10.628Z,-3.88
2017-12-21T07:41:20.609Z,-3.88
2017-12-21T07:42:30.588Z,-3.84
2017-12-21T07:43:40.580Z,-3.85
2017-12-21T07:44:50.616Z,-3.85
2017-12-21T07:46:00.596Z,-3.83
2017-12-21T07:47:10.049Z,-3.77
2017-12-21T07:48:19.761Z,-3.81
2017-12-21T07:49:29.745Z,-3.78
2017-12-21T07:50:39.705Z,-3.71
2017-12-21T07:51:49.688Z,-3.85
2017-12-21T07:52:59.670Z,-3.91
2017-12-21T07:54:09.649Z,-3.81
2017-12-21T07:55:19.631Z,-3.9
2017-12-21T07:56:29.610Z,-3.84
2017-12-21T07:57:39.347Z,-3.88
2017-12-21T07:58:49.061Z,-3.83
2017-12-21T07:59:59.040Z,-3.78
2017-12-21T08:01:09.028Z,-3.9
2017-12-21T08:02:19.022Z,-3.81
2017-12-21T08:03:29.001Z,-3.75
2017-12-21T08:04:38.990Z,-3.77
2017-12-21T08:05:48.973Z,-3.74
2017-12-21T08:06:58.689Z,-3.66
2017-12-21T08:08:08.400Z,-3.66
2017-12-21T08:09:18.117Z,-3.66
2017-12-21T08:10:27.831Z,-3.71
2017-12-21T08:11:37.868Z,-3.68
2017-12-21T08:12:47.848Z,-3.66
2017-12-21T08:13:59.830Z,-3.56
2017-12-21T08:15:09.808Z,-3.61
2017-12-21T08:16:19.796Z,-3.61
2017-12-21T08:17:29.508Z,-3.68
2017-12-21T08:18:39.223Z,-3.71
2017-12-21T08:19:49.208Z,-3.68
2017-12-21T08:20:59.187Z,-3.69
2017-12-21T08:22:09.172Z,-3.64
2017-12-21T08:23:19.156Z,-3.53
2017-12-21T08:24:29.133Z,-3.59
2017-12-21T08:25:39.111Z,-3.58
2017-12-21T08:26:49.086Z,-3.59
2017-12-21T08:27:58.798Z,-3.48
2017-12-21T08:29:08.517Z,-3.46
2017-12-21T08:30:18.236Z,-3.4
2017-12-21T08:31:28.216Z,-3.4
2017-12-21T08:32:38.198Z,-3.48
2017-12-21T08:33:47.910Z,-3.55
2017-12-21T08:34:57.625Z,-3.58
2017-12-21T08:36:07.085Z,-3.58
2017-12-21T08:37:17.072Z,-3.62
2017-12-21T08:38:27.057Z,-3.58
2017-12-21T08:39:37.049Z,-3.58
2017-12-21T08:40:46.500Z,-3.62
2017-12-21T08:41:56.482Z,-3.62
2017-12-21T08:43:06.463Z,-3.58
2017-12-21T08:44:16.220Z,-3.62
2017-12-21T08:45:26.219Z,-3.75
2017-12-21T08:46:35.931Z,-3.85
2017-12-21T08:47:45.651Z,-3.85
2017-12-21T08:48:55.628Z,-3.81
2017-12-21T08:50:05.625Z,-3.91
2017-12-21T08:51:15.606Z,-3.91
2017-12-21T08:52:25.606Z,-3.81
2017-12-21T08:53:35.593Z,-3.91
2017-12-21T08:54:45.571Z,-3.95
2017-12-21T08:55:55.551Z,-3.94
2017-12-21T08:57:05.531Z,-3.95
2017-12-21T08:58:15.522Z,-3.94
2017-12-21T08:59:25.501Z,-3.84
2017-12-21T09:00:35.783Z,-3.83
2017-12-21T09:01:45.502Z,-3.84
2017-12-21T09:02:55.488Z,-3.87
2017-12-21T09:04:05.528Z,-3.8
2017-12-21T09:05:15.249Z,-3.81
2017-12-21T09:06:25.668Z,-3.83
2017-12-21T09:07:35.774Z,-3.94
2017-12-21T09:08:45.764Z,-3.83
2017-12-21T09:09:55.742Z,-3.8
2017-12-21T09:11:05.756Z,-3.87
2017-12-21T09:12:17.738Z,-3.83
2017-12-21T09:13:27.723Z,-3.83
2017-12-21T09:14:37.441Z,-3.78
2017-12-21T09:15:47.160Z,-3.81
2017-12-21T09:16:57.250Z,-3.83
2017-12-21T09:18:07.286Z,-3.84
2017-12-21T09:19:17.266Z,-4.02
2017-12-21T09:20:26.979Z,-3.98
2017-12-21T09:21:37.008Z,-3.98
2017-12-21T09:22:46.999Z,-3.98
2017-12-21T09:23:56.711Z,-4.09
2017-12-21T09:25:06.697Z,-3.98
2017-12-21T09:26:16.422Z,-3.9
2017-12-21T09:27:26.403Z,-4.06
2017-12-21T09:28:36.386Z,-3.94
2017-12-21T09:29:46.096Z,-4.06
2017-12-21T09:30:56.135Z,-4.02
2017-12-21T09:32:06.116Z,-4.09
2017-12-21T09:33:16.091Z,-4.09
2017-12-21T09:34:26.086Z,-4.19
2017-12-21T09:35:35.798Z,-4.04
2017-12-21T09:36:45.786Z,-4.02
2017-12-21T09:37:55.763Z,-4.05
2017-12-21T09:39:05.756Z,-3.98
2017-12-21T09:40:15.474Z,-3.99
2017-12-21T09:41:25.456Z,-3.85
2017-12-21T09:42:35.432Z,-3.9
2017-12-21T09:43:45.146Z,-3.83
2017-12-21T09:44:55.127Z,-3.69
2017-12-21T09:46:05.102Z,-3.66
2017-12-21T09:47:14.553Z,-3.58
2017-12-21T09:48:24.537Z,-3.58
2017-12-21T09:49:34.514Z,-3.58
2017-12-21T09:50:44.544Z,-3.51
2017-12-21T09:51:54.259Z,-3.46
2017-12-21T09:53:03.980Z,-3.5
2017-12-21T09:54:13.974Z,-3.59
2017-12-21T09:55:23.690Z,-3.78
2017-12-21T09:56:33.703Z,-3.96
2017-12-21T09:57:43.681Z,-4.05
2017-12-21T09:58:53.671Z,-4.27
2017-12-21T10:00:03.652Z,-4.23
2017-12-21T10:01:13.366Z,-4.42
2017-12-21T10:02:23.350Z,-4.38
2017-12-21T10:03:33.329Z,-4.38
2017-12-21T10:04:43.311Z,-4.38
2017-12-21T10:05:53.290Z,-4.34
2017-12-21T10:07:03.008Z,-4.24
2017-12-21T10:08:13.001Z,-4.23
2017-12-21T10:09:22.989Z,-4.24
2017-12-21T10:10:32.967Z,-4.2
2017-12-21T10:11:42.958Z,-4.14
2017-12-21T10:12:53.015Z,-4.06
2017-12-21T10:14:02.728Z,-4.02
2017-12-21T10:15:12.440Z,-3.88
2017-12-21T10:16:22.423Z,-3.85
2017-12-21T10:17:32.410Z,-3.88
2017-12-21T10:18:42.446Z,-3.9
2017-12-21T10:19:52.167Z,-3.94
2017-12-21T10:21:01.883Z,-3.81
2017-12-21T10:22:11.328Z,-3.91
2017-12-21T10:23:21.039Z,-3.83
2017-12-21T10:24:31.024Z,-3.66
2017-12-21T10:25:40.736Z,-3.65
2017-12-21T10:26:50.192Z,-3.59
2017-12-21T10:28:00.186Z,-3.48
2017-12-21T10:29:09.899Z,-3.41
2017-12-21T10:30:19.880Z,-3.46
2017-12-21T10:31:29.862Z,-3.26
2017-12-21T10:32:39.572Z,-3.17
2017-12-21T10:33:49.556Z,-3.08
2017-12-21T10:34:59.275Z,-3.01
2017-12-21T10:36:08.991Z,-2.84
2017-12-21T10:37:18.972Z,-2.72
2017-12-21T10:38:28.949Z,-2.61
2017-12-21T10:39:38.668Z,-2.57
2017-12-21T10:40:48.644Z,-2.51
2017-12-21T10:41:58.632Z,-2.5
2017-12-21T10:43:07.815Z,-2.45
2017-12-21T10:44:17.529Z,-2.55
2017-12-21T10:45:27.600Z,-2.68
2017-12-21T10:46:37.322Z,-3.08
2017-12-21T10:47:47.308Z,-3.32
2017-12-21T10:48:57.286Z,-3.58
2017-12-21T10:50:07.265Z,-3.71
2017-12-21T10:51:16.762Z,-3.85
2017-12-21T10:52:26.748Z,-3.91
2017-12-21T10:53:36.196Z,-3.94
2017-12-21T10:54:45.908Z,-3.98
2017-12-21T10:55:55.357Z,-4.09
2017-12-21T10:57:05.337Z,-4.12
2017-12-21T10:58:15.317Z,-4.16
2017-12-21T10:59:25.411Z,-4.19
2017-12-21T11:00:35.131Z,-4.13
2017-12-21T11:01:45.161Z,-4.06
2017-12-21T11:02:54.872Z,-4.09
2017-12-21T11:04:04.592Z,-4.12
2017-12-21T11:05:14.316Z,-4.12
2017-12-21T11:06:24.301Z,-4.23
2017-12-21T11:07:34.022Z,-4.17
2017-12-21T11:08:44.007Z,-4.23
2017-12-21T11:09:53.724Z,-4.17
2017-12-21T11:11:03.706Z,-4.2
2017-12-21T11:12:13.684Z,-4.24
2017-12-21T11:13:23.668Z,-4.16
2017-12-21T11:14:33.644Z,-4.14
2017-12-21T11:15:43.360Z,-4.3
2017-12-21T11:16:53.339Z,-4.31
2017-12-21T11:18:03.054Z,-4.33
2017-12-21T11:19:13.042Z,-4.34
2017-12-21T11:20:23.041Z,-4.2
2017-12-21T11:21:33.020Z,-4.23
2017-12-21T11:22:43.001Z,-4.22
2017-12-21T11:23:52.986Z,-4.2
2017-12-21T11:25:02.980Z,-4.08
2017-12-21T11:26:12.975Z,-4.06
2017-12-21T11:27:22.958Z,-4.04
2017-12-21T11:28:32.937Z,-3.94
2017-12-21T11:29:42.916Z,-3.95
2017-12-21T11:30:52.895Z,-3.87
2017-12-21T11:32:02.880Z,-3.85
2017-12-21T11:33:12.598Z,-3.85
2017-12-21T11:34:22.581Z,-3.85
2017-12-21T11:35:32.299Z,-3.84
2017-12-21T11:36:42.010Z,-3.83
2017-12-21T11:37:51.989Z,-3.77
2017-12-21T11:39:01.971Z,-3.75
2017-12-21T11:40:11.417Z,-3.68
2017-12-21T11:41:21.409Z,-3.66
2017-12-21T11:42:31.126Z,-3.65
2017-12-21T11:43:41.414Z,-3.66
2017-12-21T11:44:51.391Z,-3.69
2017-12-21T11:46:01.108Z,-3.71
2017-12-21T11:47:10.823Z,-3.71
2017-12-21T11:48:20.276Z,-3.71
2017-12-21T11:49:30.820Z,-3.66
2017-12-21T11:50:40.807Z,-3.62
2017-12-21T11:51:50.581Z,-3.61
2017-12-21T11:53:00.296Z,-3.68
2017-12-21T11:54:10.010Z,-3.69
2017-12-21T11:55:19.727Z,-3.64
2017-12-21T11:56:29.706Z,-3.43
2017-12-21T11:57:39.704Z,-3.2
2017-12-21T11:58:49.421Z,-2.99
2017-12-21T11:59:59.396Z,-2.84
2017-12-21T12:01:09.146Z,-2.63
2017-12-21T12:02:19.134Z,-2.42
2017-12-21T12:03:29.188Z,-2.18
2017-12-21T12:04:38.904Z,-2
2017-12-21T12:05:48.894Z,-1.64
2017-12-21T12:06:58.873Z,-1.51
2017-12-21T12:08:08.858Z,-1.35
2017-12-21T12:09:18.846Z,-1.11
2017-12-21T12:10:28.916Z,-0.97
2017-12-21T12:11:38.899Z,-1.29
2017-12-21T12:12:48.886Z,-0.97
2017-12-21T12:13:58.604Z,-0.74
2017-12-21T12:15:08.585Z,-1.21
2017-12-21T12:16:18.567Z,-1.14
2017-12-21T12:17:28.553Z,-0.74
2017-12-21T12:18:38.066Z,-0.56
2017-12-21T12:19:48.057Z,-0.64
2017-12-21T12:20:58.183Z,-0.41
2017-12-21T12:22:08.099Z,-0.39
2017-12-21T12:23:17.870Z,-0.33
2017-12-21T12:24:27.854Z,-0.21
2017-12-21T12:25:37.311Z,-0.05
2017-12-21T12:26:47.367Z,0.11
2017-12-21T12:27:57.093Z,0.18
2017-12-21T12:29:07.078Z,0.45
2017-12-21T12:30:17.065Z,0.44
2017-12-21T12:31:27.053Z,0.45
2017-12-21T12:32:37.045Z,0.51
2017-12-21T12:33:47.030Z,0.48
2017-12-21T12:34:57.013Z,0.48
2017-12-21T12:36:06.733Z,0.55
2017-12-21T12:37:16.189Z,0.51
2017-12-21T12:38:26.176Z,0.7
2017-12-21T12:39:35.900Z,0.67
2017-12-21T12:40:45.891Z,0.51
2017-12-21T12:41:55.875Z,0.7
2017-12-21T12:43:05.860Z,0.48
2017-12-21T12:44:15.852Z,0.42
2017-12-21T12:45:25.569Z,0.19
2017-12-21T12:46:35.556Z,0.15
2017-12-21T12:47:45.549Z,0.12
2017-12-21T12:48:55.531Z,-0.31
2017-12-21T12:50:05.255Z,-0.41
2017-12-21T12:51:15.244Z,-0.48
2017-12-21T12:52:24.967Z,-0.59
2017-12-21T12:53:34.964Z,-0.7
2017-12-21T12:54:44.955Z,-1
2017-12-21T12:55:54.941Z,-1.04
2017-12-21T12:57:04.937Z,-1.11
2017-12-21T12:58:14.659Z,-1.24
2017-12-21T12:59:24.644Z,-1.36
2017-12-21T13:00:34.627Z,-1.35
2017-12-21T13:01:44.625Z,-1.46
2017-12-21T13:02:54.342Z,-1.54
2017-12-21T13:04:04.328Z,-1.66
2017-12-21T13:05:14.311Z,-1.79
2017-12-21T13:06:24.026Z,-1.75
2017-12-21T13:07:33.810Z,-1.84
2017-12-21T13:08:43.793Z,-1.82
2017-12-21T13:09:53.887Z,-1.87
2017-12-21T13:11:03.867Z,-2.02
2017-12-21T13:12:13.869Z,-2.33
2017-12-21T13:13:23.913Z,-2.45
2017-12-21T13:14:33.629Z,-2.39
2017-12-21T13:15:43.676Z,-2.47
2017-12-21T13:16:53.673Z,-2.51
2017-12-21T13:18:03.662Z,-2.58
2017-12-21T13:19:13.649Z,-2.57
2017-12-21T13:20:23.102Z,-2.61
2017-12-21T13:21:33.087Z,-2.76
2017-12-21T13:22:42.537Z,-2.76
2017-12-21T13:23:52.518Z,-2.84
2017-12-21T13:25:02.505Z,-2.96
2017-12-21T13:26:12.482Z,-3.11
2017-12-21T13:27:21.932Z,-3.08
2017-12-21T13:28:31.657Z,-3.11
2017-12-21T13:29:41.636Z,-3.12
2017-12-21T13:30:51.620Z,-3.26
2017-12-21T13:32:01.336Z,-3.3
2017-12-21T13:33:11.049Z,-3.26
2017-12-21T13:34:20.765Z,-3.29
2017-12-21T13:35:30.486Z,-3.43
2017-12-21T13:36:40.203Z,-3.4
2017-12-21T13:37:50.184Z,-3.43
2017-12-21T13:39:00.172Z,-3.37
2017-12-21T13:40:12.160Z,-3.46
2017-12-21T13:41:22.146Z,-3.47
2017-12-21T13:42:32.129Z,-3.47
2017-12-21T13:43:41.843Z,-3.47
2017-12-21T13:44:51.827Z,-3.58
2017-12-21T13:46:01.864Z,-3.5
2017-12-21T13:47:11.849Z,-3.48
2017-12-21T13:48:21.840Z,-3.51
2017-12-21T13:49:31.822Z,-3.47
2017-12-21T13:50:41.814Z,-3.48
2017-12-21T13:51:51.793Z,-3.58
2017-12-21T13:53:01.776Z,-3.55
2017-12-21T13:54:11.755Z,-3.68
2017-12-21T13:55:21.468Z,-3.65
2017-12-21T13:56:31.447Z,-3.71
2017-12-21T13:57:41.433Z,-3.68
2017-12-21T13:58:50.887Z,-3.75
2017-12-21T14:00:00.607Z,-3.74
2017-12-21T14:01:10.600Z,-3.69
2017-12-21T14:02:20.583Z,-3.68
2017-12-21T14:03:32.589Z,-3.75
2017-12-21T14:04:42.571Z,-3.75
2017-12-21T14:05:52.553Z,-3.74
2017-12-21T14:07:02.531Z,-3.74
2017-12-21T14:08:12.243Z,-3.66
2017-12-21T14:09:22.226Z,-3.78
2017-12-21T14:10:32.025Z,-3.8
2017-12-21T14:11:42.010Z,-3.81
2017-12-21T14:12:51.730Z,-3.85
2017-12-21T14:14:01.464Z,-3.84
2017-12-21T14:15:11.447Z,-3.91
2017-12-21T14:16:21.432Z,-3.91
2017-12-21T14:17:31.207Z,-3.88
2017-12-21T14:18:41.183Z,-3.9
2017-12-21T14:19:51.172Z,-4.01
2017-12-21T14:21:00.885Z,-3.99
2017-12-21T14:22:10.606Z,-3.94
2017-12-21T14:23:20.317Z,-3.95
2017-12-21T14:24:30.049Z,-4.01
2017-12-21T14:25:40.036Z,-3.94
2017-12-21T14:26:49.754Z,-3.99
2017-12-21T14:27:59.538Z,-3.95
2017-12-21T14:29:09.517Z,-3.81
2017-12-21T14:30:19.232Z,-3.95
2017-12-21T14:31:28.947Z,-3.96
2017-12-21T14:32:39.282Z,-3.85
2017-12-21T14:33:49.264Z,-3.85
2017-12-21T14:34:59.243Z,-3.87
2017-12-21T14:36:09.223Z,-3.85
2017-12-21T14:37:18.674Z,-3.81
2017-12-21T14:38:28.663Z,-3.87
2017-12-21T14:39:38.642Z,-3.84
2017-12-21T14:40:48.624Z,-3.81
2017-12-21T14:41:58.600Z,-3.85
2017-12-21T14:43:08.586Z,-3.96
2017-12-21T14:44:18.301Z,-3.91
2017-12-21T14:45:28.016Z,-3.94
2017-12-21T14:46:37.787Z,-3.91
2017-12-21T14:47:47.770Z,-3.88
2017-12-21T14:48:57.754Z,-3.85
2017-12-21T14:50:07.469Z,-3.99
2017-12-21T14:51:17.182Z,-4.02
2017-12-21T14:52:27.158Z,-4.01
2017-12-21T14:53:36.868Z,-4.05
2017-12-21T14:54:46.318Z,-4.09
2017-12-21T14:55:56.305Z,-4.22
2017-12-21T14:57:06.285Z,-4.14
2017-12-21T14:58:16.263Z,-4.19
2017-12-21T14:59:26.248Z,-4.14
2017-12-21T15:00:36.231Z,-4.19
2017-12-21T15:01:45.945Z,-4.14
2017-12-21T15:02:55.923Z,-4.17
2017-12-21T15:04:05.639Z,-4.22
2017-12-21T15:05:15.614Z,-4.26
2017-12-21T15:06:25.595Z,-4.23